METAR AND TAF INFORMATION
METAR FOR LDZD
ADDS - METARS form results

(1713 UTC 28 October 2020)
Data provider http://aviationweather.gov/metar/data/
 
METAR text: LDZD 281700Z 31005KT CAVOK 13/12 Q1016 NOSIG
Conditions at: LDZD (ZADAR/ZEMUNIK , HR) observed 1700 UTC 28 October 2020
Temperature: 13.0°C (55°F)
Dewpoint: 12.0°C (54°F) [RH = 94%]
Pressure (altimeter): 30.00 inches Hg (1016.0 mb)
Winds: from the NW (310 degrees) at 6 MPH (5 knots; 2.6 m/s)
Visibility: 6 or more miles (10+ km)
Ceiling: ceiling and visibility are OK
Clouds: unknown
Weather: no significant weather observed at this time

METAR text: LDZD 281630Z 31007KT CAVOK 14/12 Q1015 NOSIG
Conditions at: LDZD (ZADAR/ZEMUNIK , HR) observed 1630 UTC 28 October 2020
Temperature: 14.0°C (57°F)
Dewpoint: 12.0°C (54°F) [RH = 88%]
Pressure (altimeter): 29.97 inches Hg (1015.0 mb)
Winds: from the NW (310 degrees) at 8 MPH (7 knots; 3.6 m/s)
Visibility: 6 or more miles (10+ km)
Ceiling: ceiling and visibility are OK
Clouds: unknown
Weather: no significant weather observed at this time

Forecast for: LDZD (ZADAR/ZEMUNIK , HR)
Text: TAF LDZD 281125Z 2812/2912 30010KT CAVOK TX19/2812Z TN09/2905Z
Forecast period: 1200 UTC 28 October 2020 to 1200 UTC 29 October 2020
Forecast type: FROM: standard forecast or significant change
Winds: from the WNW (300 degrees) at 12 MPH (10 knots; 5.1 m/s)
Visibility: 6 or more miles (10+ km)
Ceiling: unknown
Clouds: missing
Weather: no significant weather forecast for this period
Text: TEMPO 2818/2908 30005KT
Forecast period: 1800 UTC 28 October 2020 to 0800 UTC 29 October 2020
Forecast type: TEMPORARY: The following changes expected for less than half the time period
Winds: from the WNW (300 degrees) at 6 MPH (5 knots; 2.6 m/s)
Visibility: missing
Ceiling: unknown
Clouds: missing
Weather: no significant weather forecast for this period

 AIRPORT MAP

 RUNWAY INFORMATION
Runway 04 Runway length 6561 ft Runway width 147 ft
Runway elevation 289 ft Runway displaced threshold 0 ft Runway heading 42
Runway 22 Runway length 6561 ft Runway width 147 ft
Runway elevation 272 ft Runway displaced threshold 0 ft Runway heading 222
Runway 14 Runway length 8202 ft Runway width 147 ft
Runway elevation 243 ft Runway displaced threshold 0 ft Runway heading 136
Runway 32 Runway length 8202 ft Runway width 147 ft
Runway elevation 259 ft Runway displaced threshold 0 ft Runway heading 316

 AIRPORT FREQUENCIES
Type APP Name APP Frequency 118.6 MHZ
Type TWR Name TWR Frequency 123.7 MHZ

 AIRPORT NEAR NAVIGATION AIDS
Type NDB Name Bokanjac Frequency 385 KHZ
Type NDB Name Sali Frequency 421 KHZ
Type VOR-DME Name Zadar Frequency 108600 KHZ
Type NDB Name Zadar Frequency 348 KHZ
Type NDB Name Kakma Frequency 330 KHZ



Powered by Virtual Airlines Manager [v2.6.2]

Impressum | Datenschutz